sensor_id;sensor_type;location;lat;lon;timestamp;temperature;humidity
52058;DHT22;38063;53.210;6.504;2023-02-28T00:02:08;4.10;99.90
52058;DHT22;38063;53.210;6.504;2023-02-28T00:04:33;4.10;99.90
52058;DHT22;38063;53.210;6.504;2023-02-28T00:06:59;4.10;99.90
52058;DHT22;38063;53.210;6.504;2023-02-28T00:09:24;4.10;99.90
52058;DHT22;38063;53.210;6.504;2023-02-28T00:11:50;4.10;99.90
52058;DHT22;38063;53.210;6.504;2023-02-28T00:14:16;4.10;99.90
52058;DHT22;38063;53.210;6.504;2023-02-28T00:16:41;4.10;99.90
52058;DHT22;38063;53.210;6.504;2023-02-28T00:19:07;4.00;99.90
52058;DHT22;38063;53.210;6.504;2023-02-28T00:21:33;4.10;99.90
52058;DHT22;38063;53.210;6.504;2023-02-28T00:23:58;4.10;99.90
52058;DHT22;38063;53.210;6.504;2023-02-28T00:26:24;4.00;99.90
52058;DHT22;38063;53.210;6.504;2023-02-28T00:28:52;4.00;99.90
52058;DHT22;38063;53.210;6.504;2023-02-28T00:31:18;4.00;99.90
52058;DHT22;38063;53.210;6.504;2023-02-28T00:33:43;4.00;99.90
52058;DHT22;38063;53.210;6.504;2023-02-28T00:36:10;4.00;99.90
52058;DHT22;38063;53.210;6.504;2023-02-28T00:38:37;4.00;99.90
52058;DHT22;38063;53.210;6.504;2023-02-28T00:41:03;4.00;99.90
52058;DHT22;38063;53.210;6.504;2023-02-28T00:43:31;4.00;99.90
52058;DHT22;38063;53.210;6.504;2023-02-28T00:45:57;4.80;99.90
52058;DHT22;38063;53.210;6.504;2023-02-28T00:48:22;4.00;99.90
52058;DHT22;38063;53.210;6.504;2023-02-28T00:50:49;4.00;99.90
52058;DHT22;38063;53.210;6.504;2023-02-28T00:53:15;3.90;99.90
52058;DHT22;38063;53.210;6.504;2023-02-28T00:55:41;4.00;99.90
52058;DHT22;38063;53.210;6.504;2023-02-28T00:58:06;3.90;99.90
52058;DHT22;38063;53.210;6.504;2023-02-28T01:00:32;4.00;99.90
52058;DHT22;38063;53.210;6.504;2023-02-28T01:02:57;4.00;99.90
52058;DHT22;38063;53.210;6.504;2023-02-28T01:05:23;4.00;99.90
52058;DHT22;38063;53.210;6.504;2023-02-28T01:07:49;4.00;99.90
52058;DHT22;38063;53.210;6.504;2023-02-28T01:10:15;4.00;99.90
52058;DHT22;38063;53.210;6.504;2023-02-28T01:12:40;4.00;99.90
52058;DHT22;38063;53.210;6.504;2023-02-28T01:15:06;4.00;99.90
52058;DHT22;38063;53.210;6.504;2023-02-28T01:17:35;4.00;99.90
52058;DHT22;38063;53.210;6.504;2023-02-28T01:20:01;4.00;99.90
52058;DHT22;38063;53.210;6.504;2023-02-28T01:22:27;4.00;99.90
52058;DHT22;38063;53.210;6.504;2023-02-28T01:24:53;4.00;99.90
52058;DHT22;38063;53.210;6.504;2023-02-28T01:27:19;4.00;99.90
52058;DHT22;38063;53.210;6.504;2023-02-28T01:29:45;4.00;99.90
52058;DHT22;38063;53.210;6.504;2023-02-28T01:32:10;3.90;99.90
52058;DHT22;38063;53.210;6.504;2023-02-28T01:34:36;3.90;99.90
52058;DHT22;38063;53.210;6.504;2023-02-28T01:37:02;3.90;99.90
52058;DHT22;38063;53.210;6.504;2023-02-28T01:39:28;3.90;99.90
52058;DHT22;38063;53.210;6.504;2023-02-28T01:41:54;3.90;99.90
52058;DHT22;38063;53.210;6.504;2023-02-28T01:47:29;3.90;99.90
52058;DHT22;38063;53.210;6.504;2023-02-28T01:49:56;3.90;99.90
52058;DHT22;38063;53.210;6.504;2023-02-28T01:52:23;3.90;99.90
52058;DHT22;38063;53.210;6.504;2023-02-28T01:54:52;3.90;99.90
52058;DHT22;38063;53.210;6.504;2023-02-28T01:57:25;3.90;99.90
52058;DHT22;38063;53.210;6.504;2023-02-28T02:02:21;3.90;99.90
52058;DHT22;38063;53.210;6.504;2023-02-28T02:05:08;4.00;99.90
52058;DHT22;38063;53.210;6.504;2023-02-28T02:07:39;4.00;99.90
52058;DHT22;38063;53.210;6.504;2023-02-28T02:10:14;3.90;99.90
52058;DHT22;38063;53.210;6.504;2023-02-28T02:15:29;4.00;99.90
52058;DHT22;38063;53.210;6.504;2023-02-28T02:18:00;4.00;99.90
52058;DHT22;38063;53.210;6.504;2023-02-28T02:32:08;4.00;99.90
52058;DHT22;38063;53.210;6.504;2023-02-28T02:37:59;4.00;99.90
52058;DHT22;38063;53.210;6.504;2023-02-28T02:40:36;4.00;99.90
52058;DHT22;38063;53.210;6.504;2023-02-28T02:43:06;4.00;99.90
52058;DHT22;38063;53.210;6.504;2023-02-28T02:45:38;4.10;99.90
52058;DHT22;38063;53.210;6.504;2023-02-28T02:48:08;4.00;99.90
52058;DHT22;38063;53.210;6.504;2023-02-28T02:50:38;4.00;99.90
52058;DHT22;38063;53.210;6.504;2023-02-28T02:53:05;4.00;99.90
52058;DHT22;38063;53.210;6.504;2023-02-28T02:55:35;4.00;99.90
52058;DHT22;38063;53.210;6.504;2023-02-28T02:58:06;4.00;99.90
52058;DHT22;38063;53.210;6.504;2023-02-28T03:00:37;4.00;99.90
52058;DHT22;38063;53.210;6.504;2023-02-28T03:03:04;4.00;99.90
52058;DHT22;38063;53.210;6.504;2023-02-28T03:08:09;4.00;99.90
52058;DHT22;38063;53.210;6.504;2023-02-28T03:10:37;4.00;99.90
52058;DHT22;38063;53.210;6.504;2023-02-28T03:13:11;4.00;99.90
52058;DHT22;38063;53.210;6.504;2023-02-28T03:18:36;4.00;99.90
52058;DHT22;38063;53.210;6.504;2023-02-28T03:26:27;4.00;99.90
52058;DHT22;38063;53.210;6.504;2023-02-28T03:29:15;4.00;99.90
52058;DHT22;38063;53.210;6.504;2023-02-28T03:31:52;4.00;99.90
52058;DHT22;38063;53.210;6.504;2023-02-28T03:34:34;5.10;99.90
52058;DHT22;38063;53.210;6.504;2023-02-28T03:37:11;3.90;99.90
52058;DHT22;38063;53.210;6.504;2023-02-28T03:40:00;4.40;99.90
52058;DHT22;38063;53.210;6.504;2023-02-28T03:42:31;3.90;99.90
52058;DHT22;38063;53.210;6.504;2023-02-28T03:45:32;3.90;99.90
52058;DHT22;38063;53.210;6.504;2023-02-28T03:48:01;3.90;99.90
52058;DHT22;38063;53.210;6.504;2023-02-28T03:50:34;3.80;99.90
52058;DHT22;38063;53.210;6.504;2023-02-28T03:53:11;3.80;99.90
52058;DHT22;38063;53.210;6.504;2023-02-28T03:56:18;3.70;99.90
52058;DHT22;38063;53.210;6.504;2023-02-28T03:59:07;3.70;99.90
52058;DHT22;38063;53.210;6.504;2023-02-28T04:01:43;3.70;99.90
52058;DHT22;38063;53.210;6.504;2023-02-28T04:04:10;3.60;99.90
52058;DHT22;38063;53.210;6.504;2023-02-28T04:06:36;3.60;99.90
52058;DHT22;38063;53.210;6.504;2023-02-28T04:09:03;3.60;99.90
52058;DHT22;38063;53.210;6.504;2023-02-28T04:11:34;3.50;99.90
52058;DHT22;38063;53.210;6.504;2023-02-28T04:14:01;3.50;99.90
52058;DHT22;38063;53.210;6.504;2023-02-28T04:16:30;3.50;99.90
52058;DHT22;38063;53.210;6.504;2023-02-28T04:18:55;3.50;99.90
52058;DHT22;38063;53.210;6.504;2023-02-28T04:21:32;3.50;99.90
52058;DHT22;38063;53.210;6.504;2023-02-28T04:23:58;3.40;99.90
52058;DHT22;38063;53.210;6.504;2023-02-28T04:26:36;3.40;99.90
52058;DHT22;38063;53.210;6.504;2023-02-28T04:29:05;3.40;99.90
52058;DHT22;38063;53.210;6.504;2023-02-28T04:31:31;3.40;99.90
52058;DHT22;38063;53.210;6.504;2023-02-28T04:33:57;3.40;99.90
52058;DHT22;38063;53.210;6.504;2023-02-28T04:36:23;3.30;99.90
52058;DHT22;38063;53.210;6.504;2023-02-28T04:38:49;3.40;99.90
52058;DHT22;38063;53.210;6.504;2023-02-28T04:41:15;3.30;99.90
52058;DHT22;38063;53.210;6.504;2023-02-28T04:43:41;3.30;99.90
52058;DHT22;38063;53.210;6.504;2023-02-28T04:46:07;3.30;99.90
52058;DHT22;38063;53.210;6.504;2023-02-28T04:48:36;3.30;99.90
52058;DHT22;38063;53.210;6.504;2023-02-28T04:53:29;3.30;99.90
52058;DHT22;38063;53.210;6.504;2023-02-28T04:55:56;3.30;99.90
52058;DHT22;38063;53.210;6.504;2023-02-28T04:58:23;3.20;99.90
52058;DHT22;38063;53.210;6.504;2023-02-28T05:00:52;3.20;99.90
52058;DHT22;38063;53.210;6.504;2023-02-28T05:03:19;3.80;99.90
52058;DHT22;38063;53.210;6.504;2023-02-28T05:05:46;3.10;99.90
52058;DHT22;38063;53.210;6.504;2023-02-28T05:08:12;3.10;99.90
52058;DHT22;38063;53.210;6.504;2023-02-28T05:10:38;3.10;99.90
52058;DHT22;38063;53.210;6.504;2023-02-28T05:13:04;3.00;99.90
52058;DHT22;38063;53.210;6.504;2023-02-28T05:15:29;3.00;99.90
52058;DHT22;38063;53.210;6.504;2023-02-28T05:17:55;2.90;99.90
52058;DHT22;38063;53.210;6.504;2023-02-28T05:20:21;2.90;99.90
52058;DHT22;38063;53.210;6.504;2023-02-28T05:22:47;2.90;99.90
52058;DHT22;38063;53.210;6.504;2023-02-28T05:25:17;2.90;99.90
52058;DHT22;38063;53.210;6.504;2023-02-28T05:27:44;2.90;99.90
52058;DHT22;38063;53.210;6.504;2023-02-28T05:30:10;2.80;99.90
52058;DHT22;38063;53.210;6.504;2023-02-28T05:32:37;2.80;99.90
52058;DHT22;38063;53.210;6.504;2023-02-28T05:35:03;2.80;99.90
52058;DHT22;38063;53.210;6.504;2023-02-28T05:37:29;2.90;99.90
52058;DHT22;38063;53.210;6.504;2023-02-28T05:39:54;2.90;99.90
52058;DHT22;38063;53.210;6.504;2023-02-28T05:42:20;2.80;99.90
52058;DHT22;38063;53.210;6.504;2023-02-28T05:44:46;2.80;99.90
52058;DHT22;38063;53.210;6.504;2023-02-28T05:47:12;2.80;99.90
52058;DHT22;38063;53.210;6.504;2023-02-28T05:49:41;2.80;99.90
52058;DHT22;38063;53.210;6.504;2023-02-28T05:52:07;2.80;99.90
52058;DHT22;38063;53.210;6.504;2023-02-28T05:54:33;2.80;99.90
52058;DHT22;38063;53.210;6.504;2023-02-28T05:56:58;2.80;99.90
52058;DHT22;38063;53.210;6.504;2023-02-28T05:59:24;2.80;99.90
52058;DHT22;38063;53.210;6.504;2023-02-28T06:01:50;2.80;99.90
52058;DHT22;38063;53.210;6.504;2023-02-28T06:04:19;2.80;99.90
52058;DHT22;38063;53.210;6.504;2023-02-28T06:06:45;2.80;99.90
52058;DHT22;38063;53.210;6.504;2023-02-28T06:09:11;2.80;99.90
52058;DHT22;38063;53.210;6.504;2023-02-28T06:11:37;2.80;99.90
52058;DHT22;38063;53.210;6.504;2023-02-28T06:14:03;2.80;99.90
52058;DHT22;38063;53.210;6.504;2023-02-28T06:16:30;2.80;99.90
52058;DHT22;38063;53.210;6.504;2023-02-28T06:19:02;2.70;99.90
52058;DHT22;38063;53.210;6.504;2023-02-28T06:21:28;3.00;99.90
52058;DHT22;38063;53.210;6.504;2023-02-28T06:23:55;2.70;99.90
52058;DHT22;38063;53.210;6.504;2023-02-28T06:26:21;2.70;99.90
52058;DHT22;38063;53.210;6.504;2023-02-28T06:28:47;2.70;99.90
52058;DHT22;38063;53.210;6.504;2023-02-28T06:31:16;3.40;99.90
52058;DHT22;38063;53.210;6.504;2023-02-28T06:33:42;2.70;99.90
52058;DHT22;38063;53.210;6.504;2023-02-28T06:36:09;2.70;99.90
52058;DHT22;38063;53.210;6.504;2023-02-28T06:38:36;2.70;99.90
52058;DHT22;38063;53.210;6.504;2023-02-28T06:41:03;3.30;99.90
52058;DHT22;38063;53.210;6.504;2023-02-28T06:43:30;2.70;99.90
52058;DHT22;38063;53.210;6.504;2023-02-28T06:45:58;2.70;99.90
52058;DHT22;38063;53.210;6.504;2023-02-28T06:48:25;2.60;99.90
52058;DHT22;38063;53.210;6.504;2023-02-28T06:51:00;2.60;99.90
52058;DHT22;38063;53.210;6.504;2023-02-28T06:53:26;2.60;99.90
52058;DHT22;38063;53.210;6.504;2023-02-28T06:55:51;2.60;99.90
52058;DHT22;38063;53.210;6.504;2023-02-28T06:58:17;2.60;99.90
52058;DHT22;38063;53.210;6.504;2023-02-28T07:00:45;2.50;99.90
52058;DHT22;38063;53.210;6.504;2023-02-28T07:03:12;2.50;99.90
52058;DHT22;38063;53.210;6.504;2023-02-28T07:05:39;2.50;99.90
52058;DHT22;38063;53.210;6.504;2023-02-28T07:08:05;2.50;99.90
52058;DHT22;38063;53.210;6.504;2023-02-28T07:10:32;2.50;99.90
52058;DHT22;38063;53.210;6.504;2023-02-28T07:12:59;3.70;99.90
52058;DHT22;38063;53.210;6.504;2023-02-28T07:15:25;2.40;99.90
52058;DHT22;38063;53.210;6.504;2023-02-28T07:17:51;2.40;99.90
52058;DHT22;38063;53.210;6.504;2023-02-28T07:20:17;2.40;99.90
52058;DHT22;38063;53.210;6.504;2023-02-28T07:22:42;2.50;99.90
52058;DHT22;38063;53.210;6.504;2023-02-28T07:25:09;2.40;99.90
52058;DHT22;38063;53.210;6.504;2023-02-28T07:27:34;2.40;99.90
52058;DHT22;38063;53.210;6.504;2023-02-28T07:30:00;2.40;99.90
52058;DHT22;38063;53.210;6.504;2023-02-28T07:32:27;2.40;99.90
52058;DHT22;38063;53.210;6.504;2023-02-28T07:34:53;2.50;99.90
52058;DHT22;38063;53.210;6.504;2023-02-28T07:37:19;2.40;99.90
52058;DHT22;38063;53.210;6.504;2023-02-28T07:39:45;2.40;99.90
52058;DHT22;38063;53.210;6.504;2023-02-28T07:42:11;2.40;99.90
52058;DHT22;38063;53.210;6.504;2023-02-28T07:44:38;2.40;99.90
52058;DHT22;38063;53.210;6.504;2023-02-28T07:47:09;2.40;99.90
52058;DHT22;38063;53.210;6.504;2023-02-28T07:49:36;2.40;99.90
52058;DHT22;38063;53.210;6.504;2023-02-28T07:52:06;2.50;99.90
52058;DHT22;38063;53.210;6.504;2023-02-28T07:54:33;2.40;99.90
52058;DHT22;38063;53.210;6.504;2023-02-28T07:56:59;2.40;99.90
52058;DHT22;38063;53.210;6.504;2023-02-28T07:59:24;2.50;99.90
52058;DHT22;38063;53.210;6.504;2023-02-28T08:01:50;2.50;99.90
52058;DHT22;38063;53.210;6.504;2023-02-28T08:04:17;2.50;99.90
52058;DHT22;38063;53.210;6.504;2023-02-28T08:06:43;3.50;99.90
52058;DHT22;38063;53.210;6.504;2023-02-28T08:09:09;2.50;99.90
52058;DHT22;38063;53.210;6.504;2023-02-28T08:11:35;2.50;99.90
52058;DHT22;38063;53.210;6.504;2023-02-28T08:14:01;2.50;99.90
52058;DHT22;38063;53.210;6.504;2023-02-28T08:16:27;2.60;99.90
52058;DHT22;38063;53.210;6.504;2023-02-28T08:18:53;2.60;99.90
52058;DHT22;38063;53.210;6.504;2023-02-28T08:21:19;2.60;99.90
52058;DHT22;38063;53.210;6.504;2023-02-28T08:23:49;2.70;99.90
52058;DHT22;38063;53.210;6.504;2023-02-28T08:26:19;2.70;99.90
52058;DHT22;38063;53.210;6.504;2023-02-28T08:28:45;2.80;99.90
52058;DHT22;38063;53.210;6.504;2023-02-28T08:31:13;2.70;99.90
52058;DHT22;38063;53.210;6.504;2023-02-28T08:33:40;2.80;99.90
52058;DHT22;38063;53.210;6.504;2023-02-28T08:36:07;2.80;99.90
52058;DHT22;38063;53.210;6.504;2023-02-28T08:38:34;2.90;99.90
52058;DHT22;38063;53.210;6.504;2023-02-28T08:41:02;3.20;99.90
52058;DHT22;38063;53.210;6.504;2023-02-28T08:43:29;3.00;99.90
52058;DHT22;38063;53.210;6.504;2023-02-28T08:45:55;3.20;99.90
52058;DHT22;38063;53.210;6.504;2023-02-28T08:48:23;3.20;99.90
52058;DHT22;38063;53.210;6.504;2023-02-28T08:53:21;3.40;99.90
52058;DHT22;38063;53.210;6.504;2023-02-28T08:55:47;3.40;99.90
52058;DHT22;38063;53.210;6.504;2023-02-28T08:58:12;3.50;99.90
52058;DHT22;38063;53.210;6.504;2023-02-28T09:00:38;3.60;99.90
52058;DHT22;38063;53.210;6.504;2023-02-28T09:03:04;3.60;99.90
52058;DHT22;38063;53.210;6.504;2023-02-28T09:05:30;3.90;99.90
52058;DHT22;38063;53.210;6.504;2023-02-28T09:07:55;3.80;99.90
52058;DHT22;38063;53.210;6.504;2023-02-28T09:10:21;3.90;99.90
52058;DHT22;38063;53.210;6.504;2023-02-28T09:12:46;3.90;99.90
52058;DHT22;38063;53.210;6.504;2023-02-28T09:15:12;4.00;99.90
52058;DHT22;38063;53.210;6.504;2023-02-28T09:17:38;4.00;99.90
52058;DHT22;38063;53.210;6.504;2023-02-28T09:20:05;4.00;99.90
52058;DHT22;38063;53.210;6.504;2023-02-28T09:22:30;4.00;99.90
52058;DHT22;38063;53.210;6.504;2023-02-28T09:24:56;4.00;99.90
52058;DHT22;38063;53.210;6.504;2023-02-28T09:27:22;4.10;99.90
52058;DHT22;38063;53.210;6.504;2023-02-28T09:29:47;4.20;99.90
52058;DHT22;38063;53.210;6.504;2023-02-28T09:32:13;4.20;99.90
52058;DHT22;38063;53.210;6.504;2023-02-28T09:34:39;4.30;99.90
52058;DHT22;38063;53.210;6.504;2023-02-28T09:37:04;4.40;99.90
52058;DHT22;38063;53.210;6.504;2023-02-28T09:39:30;4.40;99.90
52058;DHT22;38063;53.210;6.504;2023-02-28T09:41:57;4.50;99.90
52058;DHT22;38063;53.210;6.504;2023-02-28T09:44:33;4.50;99.90
52058;DHT22;38063;53.210;6.504;2023-02-28T09:49:44;4.40;99.90
52058;DHT22;38063;53.210;6.504;2023-02-28T09:52:18;4.40;99.90
52058;DHT22;38063;53.210;6.504;2023-02-28T09:54:44;4.40;99.90
52058;DHT22;38063;53.210;6.504;2023-02-28T10:00:05;4.50;99.90
52058;DHT22;38063;53.210;6.504;2023-02-28T10:03:04;4.50;99.90
52058;DHT22;38063;53.210;6.504;2023-02-28T10:05:58;4.60;99.90
52058;DHT22;38063;53.210;6.504;2023-02-28T10:08:42;4.60;99.90
52058;DHT22;38063;53.210;6.504;2023-02-28T10:11:13;4.60;99.90
52058;DHT22;38063;53.210;6.504;2023-02-28T10:16:39;4.50;99.90
52058;DHT22;38063;53.210;6.504;2023-02-28T10:19:11;4.50;99.90
52058;DHT22;38063;53.210;6.504;2023-02-28T10:21:54;4.60;99.90
52058;DHT22;38063;53.210;6.504;2023-02-28T10:24:33;4.60;99.90
52058;DHT22;38063;53.210;6.504;2023-02-28T10:27:15;4.60;99.90
52058;DHT22;38063;53.210;6.504;2023-02-28T10:29:44;4.70;99.90
52058;DHT22;38063;53.210;6.504;2023-02-28T10:32:15;4.70;99.90
52058;DHT22;38063;53.210;6.504;2023-02-28T10:34:42;4.80;99.90
52058;DHT22;38063;53.210;6.504;2023-02-28T10:37:07;4.80;99.90
52058;DHT22;38063;53.210;6.504;2023-02-28T10:39:41;4.80;99.90
52058;DHT22;38063;53.210;6.504;2023-02-28T10:42:23;4.80;99.90
52058;DHT22;38063;53.210;6.504;2023-02-28T10:47:51;4.80;99.90
52058;DHT22;38063;53.210;6.504;2023-02-28T10:52:54;5.00;99.90
52058;DHT22;38063;53.210;6.504;2023-02-28T10:55:23;5.10;99.90
52058;DHT22;38063;53.210;6.504;2023-02-28T10:57:51;5.10;99.90
52058;DHT22;38063;53.210;6.504;2023-02-28T11:00:23;6.20;99.90
52058;DHT22;38063;53.210;6.504;2023-02-28T11:02:51;5.30;99.90
52058;DHT22;38063;53.210;6.504;2023-02-28T11:05:35;5.40;99.90
52058;DHT22;38063;53.210;6.504;2023-02-28T11:08:15;5.50;99.90
52058;DHT22;38063;53.210;6.504;2023-02-28T11:10:56;5.80;99.90
52058;DHT22;38063;53.210;6.504;2023-02-28T11:13:29;5.50;99.90
52058;DHT22;38063;53.210;6.504;2023-02-28T11:15:58;5.60;99.90
52058;DHT22;38063;53.210;6.504;2023-02-28T11:18:29;5.70;99.90
52058;DHT22;38063;53.210;6.504;2023-02-28T11:20:57;5.70;99.90
52058;DHT22;38063;53.210;6.504;2023-02-28T11:23:26;5.80;99.90
52058;DHT22;38063;53.210;6.504;2023-02-28T11:25:55;5.90;99.90
52058;DHT22;38063;53.210;6.504;2023-02-28T11:28:35;6.00;99.90
52058;DHT22;38063;53.210;6.504;2023-02-28T11:33:53;6.10;99.90
52058;DHT22;38063;53.210;6.504;2023-02-28T11:36:24;6.10;99.90
52058;DHT22;38063;53.210;6.504;2023-02-28T11:38:51;6.20;99.90
52058;DHT22;38063;53.210;6.504;2023-02-28T11:52:56;7.00;99.90
52058;DHT22;38063;53.210;6.504;2023-02-28T11:58:27;7.30;99.90
52058;DHT22;38063;53.210;6.504;2023-02-28T12:06:36;7.70;99.90
52058;DHT22;38063;53.210;6.504;2023-02-28T12:11:54;8.20;99.90
52058;DHT22;38063;53.210;6.504;2023-02-28T12:25:38;9.00;99.90
52058;DHT22;38063;53.210;6.504;2023-02-28T12:28:14;9.30;99.90
52058;DHT22;38063;53.210;6.504;2023-02-28T12:30:54;9.50;99.90
52058;DHT22;38063;53.210;6.504;2023-02-28T12:33:24;9.60;99.90
52058;DHT22;38063;53.210;6.504;2023-02-28T12:35:57;9.70;99.90
52058;DHT22;38063;53.210;6.504;2023-02-28T12:38:28;9.70;99.90
52058;DHT22;38063;53.210;6.504;2023-02-28T12:41:03;9.70;99.90
52058;DHT22;38063;53.210;6.504;2023-02-28T12:43:37;9.70;99.90
52058;DHT22;38063;53.210;6.504;2023-02-28T12:46:18;9.70;99.90
52058;DHT22;38063;53.210;6.504;2023-02-28T12:48:49;10.10;99.90
52058;DHT22;38063;53.210;6.504;2023-02-28T12:51:17;9.60;99.90
52058;DHT22;38063;53.210;6.504;2023-02-28T12:53:54;9.40;99.90
52058;DHT22;38063;53.210;6.504;2023-02-28T12:56:54;9.10;99.90
52058;DHT22;38063;53.210;6.504;2023-02-28T12:59:24;9.00;99.90
52058;DHT22;38063;53.210;6.504;2023-02-28T13:07:54;8.90;99.90
52058;DHT22;38063;53.210;6.504;2023-02-28T13:10:24;8.70;99.90
52058;DHT22;38063;53.210;6.504;2023-02-28T13:12:52;8.50;99.90
52058;DHT22;38063;53.210;6.504;2023-02-28T13:15:27;8.50;99.90
52058;DHT22;38063;53.210;6.504;2023-02-28T13:17:58;8.60;99.90
52058;DHT22;38063;53.210;6.504;2023-02-28T13:20:35;8.90;99.90
52058;DHT22;38063;53.210;6.504;2023-02-28T13:23:01;9.10;99.90
52058;DHT22;38063;53.210;6.504;2023-02-28T13:28:00;9.30;99.90
52058;DHT22;38063;53.210;6.504;2023-02-28T13:33:29;9.70;99.90
52058;DHT22;38063;53.210;6.504;2023-02-28T13:38:39;9.40;99.90
52058;DHT22;38063;53.210;6.504;2023-02-28T13:46:25;9.50;99.90
52058;DHT22;38063;53.210;6.504;2023-02-28T13:48:50;9.60;99.90
52058;DHT22;38063;53.210;6.504;2023-02-28T13:58:09;9.50;99.90
52058;DHT22;38063;53.210;6.504;2023-02-28T14:06:32;9.60;99.90
52058;DHT22;38063;53.210;6.504;2023-02-28T14:11:34;9.80;99.90
52058;DHT22;38063;53.210;6.504;2023-02-28T14:14:01;9.60;99.90
52058;DHT22;38063;53.210;6.504;2023-02-28T14:16:44;9.60;99.90
52058;DHT22;38063;53.210;6.504;2023-02-28T14:19:14;9.70;99.90
52058;DHT22;38063;53.210;6.504;2023-02-28T14:32:27;9.80;99.90
52058;DHT22;38063;53.210;6.504;2023-02-28T14:35:27;9.60;99.90
52058;DHT22;38063;53.210;6.504;2023-02-28T14:37:55;9.70;99.90
52058;DHT22;38063;53.210;6.504;2023-02-28T14:42:57;9.60;99.90
52058;DHT22;38063;53.210;6.504;2023-02-28T14:45:26;9.60;99.90
52058;DHT22;38063;53.210;6.504;2023-02-28T14:47:52;9.60;99.90
52058;DHT22;38063;53.210;6.504;2023-02-28T14:50:24;9.40;99.90
52058;DHT22;38063;53.210;6.504;2023-02-28T14:52:55;9.40;99.90
52058;DHT22;38063;53.210;6.504;2023-02-28T14:55:26;9.60;99.90
52058;DHT22;38063;53.210;6.504;2023-02-28T14:57:57;9.50;99.90
52058;DHT22;38063;53.210;6.504;2023-02-28T15:00:28;9.40;99.90
52058;DHT22;38063;53.210;6.504;2023-02-28T15:02:56;9.50;99.90
52058;DHT22;38063;53.210;6.504;2023-02-28T15:05:33;9.30;99.90
52058;DHT22;38063;53.210;6.504;2023-02-28T15:08:05;9.10;99.90
52058;DHT22;38063;53.210;6.504;2023-02-28T15:10:31;9.00;99.90
52058;DHT22;38063;53.210;6.504;2023-02-28T15:13:09;8.80;99.90
52058;DHT22;38063;53.210;6.504;2023-02-28T15:18:45;8.80;99.90
52058;DHT22;38063;53.210;6.504;2023-02-28T15:21:14;8.80;99.90
52058;DHT22;38063;53.210;6.504;2023-02-28T15:23:43;8.80;99.90
52058;DHT22;38063;53.210;6.504;2023-02-28T15:26:15;8.90;99.90
52058;DHT22;38063;53.210;6.504;2023-02-28T15:28:42;9.00;99.90
52058;DHT22;38063;53.210;6.504;2023-02-28T15:31:26;9.00;99.90
52058;DHT22;38063;53.210;6.504;2023-02-28T15:33:57;9.00;99.90
52058;DHT22;38063;53.210;6.504;2023-02-28T15:36:30;9.00;99.90
52058;DHT22;38063;53.210;6.504;2023-02-28T15:38:59;8.80;99.90
52058;DHT22;38063;53.210;6.504;2023-02-28T15:41:31;8.70;99.90
52058;DHT22;38063;53.210;6.504;2023-02-28T15:46:53;8.50;99.90
52058;DHT22;38063;53.210;6.504;2023-02-28T15:49:21;8.50;99.90
52058;DHT22;38063;53.210;6.504;2023-02-28T15:51:49;8.40;99.90
52058;DHT22;38063;53.210;6.504;2023-02-28T15:54:23;8.50;99.90
52058;DHT22;38063;53.210;6.504;2023-02-28T15:56:55;8.60;99.90
52058;DHT22;38063;53.210;6.504;2023-02-28T15:59:25;8.50;99.90
52058;DHT22;38063;53.210;6.504;2023-02-28T16:02:31;8.20;99.90
52058;DHT22;38063;53.210;6.504;2023-02-28T16:07:42;7.90;99.90
52058;DHT22;38063;53.210;6.504;2023-02-28T16:10:11;7.80;99.90
52058;DHT22;38063;53.210;6.504;2023-02-28T16:12:38;7.60;99.90
52058;DHT22;38063;53.210;6.504;2023-02-28T16:15:19;7.60;99.90
52058;DHT22;38063;53.210;6.504;2023-02-28T16:17:45;7.40;99.90
52058;DHT22;38063;53.210;6.504;2023-02-28T16:20:30;7.40;99.90
52058;DHT22;38063;53.210;6.504;2023-02-28T16:22:56;7.60;99.90
52058;DHT22;38063;53.210;6.504;2023-02-28T16:25:38;7.60;99.90
52058;DHT22;38063;53.210;6.504;2023-02-28T16:28:29;7.50;99.90
52058;DHT22;38063;53.210;6.504;2023-02-28T16:30:56;7.80;99.90
52058;DHT22;38063;53.210;6.504;2023-02-28T16:33:22;7.10;99.90
52058;DHT22;38063;53.210;6.504;2023-02-28T16:35:48;7.80;99.90
52058;DHT22;38063;53.210;6.504;2023-02-28T16:38:14;6.90;99.90
52058;DHT22;38063;53.210;6.504;2023-02-28T16:40:40;6.80;99.90
52058;DHT22;38063;53.210;6.504;2023-02-28T16:43:10;7.00;99.90
52058;DHT22;38063;53.210;6.504;2023-02-28T16:45:38;6.80;99.90
52058;DHT22;38063;53.210;6.504;2023-02-28T16:48:04;7.60;99.90
52058;DHT22;38063;53.210;6.504;2023-02-28T16:50:30;7.70;99.90
52058;DHT22;38063;53.210;6.504;2023-02-28T16:52:58;6.50;99.90
52058;DHT22;38063;53.210;6.504;2023-02-28T16:55:24;6.30;99.90
52058;DHT22;38063;53.210;6.504;2023-02-28T16:57:55;6.20;99.90
52058;DHT22;38063;53.210;6.504;2023-02-28T17:00:22;6.20;99.90
52058;DHT22;38063;53.210;6.504;2023-02-28T17:02:48;6.10;99.90
52058;DHT22;38063;53.210;6.504;2023-02-28T17:05:14;6.50;99.90
52058;DHT22;38063;53.210;6.504;2023-02-28T17:07:42;5.90;99.90
52058;DHT22;38063;53.210;6.504;2023-02-28T17:10:13;5.90;99.90
52058;DHT22;38063;53.210;6.504;2023-02-28T17:12:39;5.80;99.90
52058;DHT22;38063;53.210;6.504;2023-02-28T17:15:05;5.70;99.90
52058;DHT22;38063;53.210;6.504;2023-02-28T17:17:31;5.70;99.90
52058;DHT22;38063;53.210;6.504;2023-02-28T17:19:57;5.60;99.90
52058;DHT22;38063;53.210;6.504;2023-02-28T17:22:23;5.50;99.90
52058;DHT22;38063;53.210;6.504;2023-02-28T17:24:51;5.50;99.90
52058;DHT22;38063;53.210;6.504;2023-02-28T17:27:16;5.40;99.90
52058;DHT22;38063;53.210;6.504;2023-02-28T17:29:42;5.30;99.90
52058;DHT22;38063;53.210;6.504;2023-02-28T17:32:08;5.30;99.90
52058;DHT22;38063;53.210;6.504;2023-02-28T17:34:33;5.20;99.90
52058;DHT22;38063;53.210;6.504;2023-02-28T17:36:59;5.80;99.90
52058;DHT22;38063;53.210;6.504;2023-02-28T17:39:25;5.00;99.90
52058;DHT22;38063;53.210;6.504;2023-02-28T17:41:51;5.00;99.90
52058;DHT22;38063;53.210;6.504;2023-02-28T17:44:18;4.90;99.90
52058;DHT22;38063;53.210;6.504;2023-02-28T17:46:45;5.10;99.90
52058;DHT22;38063;53.210;6.504;2023-02-28T17:49:11;4.70;99.90
52058;DHT22;38063;53.210;6.504;2023-02-28T17:51:37;4.70;99.90
52058;DHT22;38063;53.210;6.504;2023-02-28T17:54:02;4.60;99.90
52058;DHT22;38063;53.210;6.504;2023-02-28T17:56:28;4.90;99.90
52058;DHT22;38063;53.210;6.504;2023-02-28T17:58:55;4.40;99.90
52058;DHT22;38063;53.210;6.504;2023-02-28T18:01:22;4.30;99.90
52058;DHT22;38063;53.210;6.504;2023-02-28T18:03:48;4.20;99.90
52058;DHT22;38063;53.210;6.504;2023-02-28T18:06:23;4.20;99.90
52058;DHT22;38063;53.210;6.504;2023-02-28T18:08:50;4.10;99.90
52058;DHT22;38063;53.210;6.504;2023-02-28T18:11:20;4.00;99.90
52058;DHT22;38063;53.210;6.504;2023-02-28T18:13:53;4.00;99.90
52058;DHT22;38063;53.210;6.504;2023-02-28T18:16:20;3.90;99.90
52058;DHT22;38063;53.210;6.504;2023-02-28T18:18:47;4.20;99.90
52058;DHT22;38063;53.210;6.504;2023-02-28T18:21:14;3.80;99.90
52058;DHT22;38063;53.210;6.504;2023-02-28T18:23:41;3.80;99.90
52058;DHT22;38063;53.210;6.504;2023-02-28T18:26:14;3.70;99.90